Time;durP1;ratioP1;P1;durP2;ratioP2;P2;SDS_P1;SDS_P2;PMS_P1;PMS_P2;Temp;Humidity;BMP_temperature;BMP_pressure;BME280_temperature;BME280_humidity;BME280_pressure;Samples;Min_cycle;Max_cycle;Signal;HPM_P1;HPM_P2
2021/06/29 00:03:45;;;;;;;1.40;1.40;;;23.50;35.50;;;;;;10508026;28;20605;-76
2021/06/29 00:08:48;;;;;;;1.70;1.40;;;23.50;36.20;;;;;;10507885;28;20235;-76
2021/06/29 00:13:57;;;;;;;1.60;1.43;;;23.50;35.60;;;;;;10507662;28;20637;-75
2021/06/29 00:19:02;;;;;;;3.33;1.47;;;23.50;35.80;;;;;;10513248;28;20240;-76
2021/06/29 00:24:07;;;;;;;1.60;1.50;;;23.50;36.60;;;;;;10514770;28;20235;-75
2021/06/29 00:29:10;;;;;;;1.70;1.60;;;23.50;36.40;;;;;;10518000;28;20754;-75
2021/06/29 00:34:14;;;;;;;1.73;1.60;;;23.60;36.20;;;;;;10516884;28;20231;-76
2021/06/29 00:39:17;;;;;;;1.70;1.60;;;23.60;36.80;;;;;;10513515;28;20232;-76
2021/06/29 00:44:23;;;;;;;1.83;1.70;;;23.70;36.20;;;;;;10522222;28;20247;-76
2021/06/29 00:49:27;;;;;;;1.40;1.40;;;23.60;36.70;;;;;;10523595;28;20245;-75
2021/06/29 00:54:31;;;;;;;2.13;1.50;;;23.60;37.00;;;;;;10519427;28;20671;-75
2021/06/29 00:59:35;;;;;;;1.30;1.30;;;23.50;36.60;;;;;;10514537;28;20239;-76
2021/06/29 01:04:41;;;;;;;1.50;1.40;;;23.40;36.60;;;;;;10520455;28;20310;-77
2021/06/29 01:09:44;;;;;;;2.40;1.60;;;23.30;37.60;;;;;;10528414;28;20228;-77
2021/06/29 01:14:51;;;;;;;1.73;1.50;;;23.20;36.70;;;;;;10528437;28;20224;-76
2021/06/29 01:19:56;;;;;;;2.00;1.77;;;23.20;36.90;;;;;;10512559;28;20243;-75
2021/06/29 01:25:00;;;;;;;2.10;1.90;;;23.10;37.60;;;;;;10509019;28;20243;-75
2021/06/29 01:35:26;;;;;;;3.70;2.27;;;23.00;37.70;;;;;;10519032;28;20742;-75
2021/06/29 01:40:31;;;;;;;2.30;1.83;;;22.80;37.30;;;;;;10521446;28;20234;-75
2021/06/29 01:45:34;;;;;;;2.20;1.80;;;22.70;38.80;;;;;;10516869;28;20227;-76
2021/06/29 01:50:38;;;;;;;1.80;1.70;;;22.70;38.00;;;;;;10507678;28;20257;-75
2021/06/29 01:55:42;;;;;;;2.00;1.90;;;22.60;38.10;;;;;;10511334;28;20232;-76
2021/06/29 02:00:45;;;;;;;2.03;1.93;;;22.50;38.70;;;;;;10514970;28;20235;-75
2021/06/29 02:05:49;;;;;;;2.00;1.87;;;22.40;38.60;;;;;;10510995;28;20224;-75
2021/06/29 02:10:53;;;;;;;2.20;2.00;;;22.20;38.40;;;;;;10503064;28;20224;-76
2021/06/29 02:15:57;;;;;;;2.70;1.90;;;22.10;39.60;;;;;;10508768;28;20235;-76
2021/06/29 02:21:00;;;;;;;2.97;2.20;;;22.10;38.90;;;;;;10503341;28;20710;-76
2021/06/29 02:26:05;;;;;;;2.43;2.30;;;22.00;39.30;;;;;;10521919;27;20311;-75
2021/06/29 02:31:09;;;;;;;2.30;2.10;;;22.10;39.90;;;;;;10504296;28;20599;-76
2021/06/29 02:36:12;;;;;;;2.57;2.10;;;22.00;39.00;;;;;;10526073;28;20834;-76
2021/06/29 02:41:17;;;;;;;2.70;2.50;;;22.00;39.10;;;;;;10525869;28;20227;-76
2021/06/29 02:46:20;;;;;;;4.03;2.57;;;22.00;40.10;;;;;;10524006;28;20231;-76
2021/06/29 02:51:23;;;;;;;2.53;2.33;;;21.90;39.50;;;;;;10521966;27;20228;-76
2021/06/29 02:56:40;;;;;;;3.00;2.67;;;21.80;39.80;;;;;;10516277;28;20232;-76
2021/06/29 03:01:44;;;;;;;2.83;2.57;;;21.80;40.80;;;;;;10522918;27;20721;-76
2021/06/29 03:06:50;;;;;;;4.13;3.00;;;21.70;40.20;;;;;;10518133;28;20240;-76
2021/06/29 03:11:54;;;;;;;2.87;2.60;;;21.70;40.20;;;;;;10518020;28;20227;-76
2021/06/29 03:16:57;;;;;;;4.00;2.43;;;21.70;41.40;;;;;;10522215;28;20616;-76
2021/06/29 03:22:02;;;;;;;2.83;2.63;;;21.60;40.80;;;;;;10517354;28;20231;-76
2021/06/29 03:27:08;;;;;;;2.83;2.63;;;21.60;41.50;;;;;;10519172;28;20242;-76
2021/06/29 03:32:11;;;;;;;3.40;3.10;;;21.60;41.80;;;;;;10515239;28;20239;-75
2021/06/29 03:37:14;;;;;;;2.90;2.70;;;21.70;41.10;;;;;;10518949;28;20285;-76
2021/06/29 03:42:19;;;;;;;3.20;2.97;;;21.80;41.10;;;;;;10521033;28;20232;-76
2021/06/29 03:47:22;;;;;;;3.57;3.37;;;21.70;41.70;;;;;;10516261;28;21286;-76
2021/06/29 03:52:25;;;;;;;4.00;3.57;;;21.80;41.40;;;;;;10524450;28;20227;-77
2021/06/29 03:57:29;;;;;;;3.03;2.83;;;21.80;41.40;;;;;;10527937;28;20242;-77
2021/06/29 04:02:33;;;;;;;3.17;2.97;;;21.70;42.30;;;;;;10507110;28;20714;-77
2021/06/29 04:07:36;;;;;;;3.70;2.83;;;21.80;41.60;;;;;;10521751;28;20706;-77
2021/06/29 04:12:41;;;;;;;3.13;2.93;;;21.90;41.80;;;;;;10523409;28;20242;-77
2021/06/29 04:17:44;;;;;;;4.20;2.70;;;21.90;42.30;;;;;;10532364;28;20255;-77
2021/06/29 04:22:47;;;;;;;2.97;2.80;;;22.00;41.40;;;;;;10509884;28;20236;-76
2021/06/29 04:27:52;;;;;;;3.00;2.80;;;22.00;41.40;;;;;;10518238;28;20230;-76
2021/06/29 04:32:55;;;;;;;2.80;2.50;;;22.00;42.20;;;;;;10524243;28;20227;-77
2021/06/29 04:37:58;;;;;;;4.07;2.60;;;22.00;41.40;;;;;;10515179;28;20243;-76
2021/06/29 04:43:02;;;;;;;2.70;2.50;;;22.10;41.30;;;;;;10521286;28;20820;-76
2021/06/29 04:48:06;;;;;;;3.13;2.73;;;22.10;42.30;;;;;;10514457;28;20223;-76
2021/06/29 04:53:09;;;;;;;2.87;2.67;;;22.10;41.60;;;;;;10510653;28;20232;-76
2021/06/29 04:58:14;;;;;;;3.10;2.90;;;22.00;41.40;;;;;;10525012;28;20220;-76
2021/06/29 05:03:18;;;;;;;2.57;2.37;;;22.00;42.00;;;;;;10518716;28;20731;-76
2021/06/29 05:08:21;;;;;;;2.77;2.60;;;21.90;42.00;;;;;;10507163;28;21642;-76
2021/06/29 05:13:25;;;;;;;2.93;2.73;;;21.90;42.00;;;;;;10516087;28;20220;-76
2021/06/29 05:18:28;;;;;;;2.77;2.43;;;21.90;42.50;;;;;;10516760;28;20247;-76
2021/06/29 05:23:31;;;;;;;2.77;2.57;;;21.90;41.90;;;;;;10511665;28;20232;-76
2021/06/29 05:28:36;;;;;;;3.30;3.00;;;21.90;42.00;;;;;;10518680;28;20224;-76
2021/06/29 05:33:40;;;;;;;2.60;2.40;;;21.90;42.60;;;;;;10505763;28;20227;-76
2021/06/29 05:38:43;;;;;;;2.17;1.97;;;21.80;42.20;;;;;;10508780;28;21137;-76
2021/06/29 05:43:48;;;;;;;3.17;2.07;;;21.70;42.20;;;;;;10517240;28;20223;-76
2021/06/29 05:48:52;;;;;;;2.30;2.10;;;21.70;43.10;;;;;;10519114;28;20216;-76
2021/06/29 05:53:55;;;;;;;2.67;2.47;;;21.70;42.70;;;;;;10512584;28;20223;-75
2021/06/29 05:59:00;;;;;;;2.63;2.27;;;21.70;42.70;;;;;;10518993;28;20228;-74
2021/06/29 06:04:03;;;;;;;1.97;1.87;;;21.70;43.50;;;;;;10510707;28;20212;-74
2021/06/29 06:09:07;;;;;;;2.20;2.10;;;21.80;43.00;;;;;;10515237;28;20216;-74
2021/06/29 06:14:11;;;;;;;2.00;1.90;;;21.80;42.60;;;;;;10516991;28;20721;-76
2021/06/29 06:19:15;;;;;;;2.37;2.00;;;21.80;43.20;;;;;;10520346;28;20599;-75
2021/06/29 06:24:18;;;;;;;1.90;1.80;;;21.80;43.00;;;;;;10513006;28;20231;-76
2021/06/29 06:29:23;;;;;;;2.47;2.27;;;21.90;43.10;;;;;;10505559;28;20232;-77
2021/06/29 06:34:26;;;;;;;2.10;2.00;;;21.90;43.50;;;;;;10510922;28;20215;-76
2021/06/29 06:39:29;;;;;;;1.80;1.70;;;21.90;43.00;;;;;;10517105;28;20223;-77
2021/06/29 06:44:34;;;;;;;2.10;2.00;;;22.00;43.20;;;;;;10514206;28;20224;-76
2021/06/29 06:49:39;;;;;;;2.17;2.03;;;22.10;43.60;;;;;;10512848;28;20894;-76
2021/06/29 06:54:43;;;;;;;2.57;2.33;;;22.10;43.00;;;;;;10517221;28;20239;-77
2021/06/29 06:59:47;;;;;;;2.40;2.20;;;22.20;43.60;;;;;;10513860;28;20231;-76
2021/06/29 07:04:51;;;;;;;2.30;2.10;;;22.20;43.60;;;;;;10507998;28;20227;-77
2021/06/29 07:09:54;;;;;;;2.40;2.30;;;22.20;43.00;;;;;;10522082;28;20224;-78
2021/06/29 07:14:59;;;;;;;2.47;2.10;;;22.20;43.10;;;;;;10513448;28;20233;-78
2021/06/29 07:20:05;;;;;;;2.33;2.20;;;22.30;43.50;;;;;;10516694;28;20594;-77
2021/06/29 07:25:09;;;;;;;2.13;2.03;;;22.30;43.40;;;;;;10520554;28;20234;-78
2021/06/29 07:30:16;;;;;;;2.40;2.20;;;22.40;43.40;;;;;;10524195;28;20222;-79
2021/06/29 07:35:19;;;;;;;2.40;2.20;;;22.30;43.50;;;;;;10515468;28;20228;-77
2021/06/29 07:40:25;;;;;;;3.40;2.50;;;22.30;43.10;;;;;;10521830;28;20235;-76
2021/06/29 07:45:32;;;;;;;2.50;2.30;;;22.30;43.60;;;;;;10518870;28;20821;-77
2021/06/29 07:50:45;;;;;;;2.67;2.47;;;22.40;44.00;;;;;;10507830;28;20254;-77
2021/06/29 07:55:49;;;;;;;3.17;2.17;;;22.50;44.40;;;;;;10510102;28;20229;-77
2021/06/29 08:00:54;;;;;;;2.50;2.40;;;22.70;43.90;;;;;;10513479;28;20224;-77
2021/06/29 08:05:57;;;;;;;2.30;2.20;;;22.80;44.60;;;;;;10517261;28;20236;-74
2021/06/29 08:11:01;;;;;;;2.27;2.10;;;23.10;43.80;;;;;;10510292;28;20605;-76
2021/06/29 08:16:08;;;;;;;2.53;2.30;;;23.30;43.40;;;;;;10510845;28;20223;-77
2021/06/29 08:21:12;;;;;;;2.40;2.20;;;23.50;43.20;;;;;;10525163;28;20231;-75
2021/06/29 08:26:15;;;;;;;3.77;2.30;;;23.70;42.70;;;;;;10517010;28;20224;-75
2021/06/29 08:31:21;;;;;;;2.50;2.30;;;23.90;43.00;;;;;;10514581;28;20725;-76
2021/06/29 08:36:25;;;;;;;2.50;2.40;;;24.10;42.70;;;;;;10502942;28;20258;-77
2021/06/29 08:41:28;;;;;;;2.70;2.50;;;24.30;42.50;;;;;;10525848;28;20231;-75
2021/06/29 08:46:33;;;;;;;2.70;2.50;;;24.50;42.20;;;;;;10508437;28;20228;-74
2021/06/29 08:51:37;;;;;;;2.70;2.50;;;24.70;41.80;;;;;;10504431;28;20226;-75
2021/06/29 08:56:40;;;;;;;2.37;2.20;;;24.80;42.10;;;;;;10511394;28;20227;-75
2021/06/29 09:01:45;;;;;;;2.10;2.00;;;25.00;42.00;;;;;;10507023;28;20231;-76
2021/06/29 09:06:48;;;;;;;2.27;2.00;;;25.30;41.10;;;;;;10512110;28;20733;-76
2021/06/29 09:11:52;;;;;;;2.23;2.10;;;25.50;41.20;;;;;;10513137;28;20227;-79
2021/06/29 09:17:18;;;;;;;2.10;2.00;;;25.70;41.00;;;;;;10516193;28;20227;-77
2021/06/29 09:22:29;;;;;;;2.27;2.10;;;26.00;40.40;;;;;;10511608;28;20232;-76
2021/06/29 09:27:43;;;;;;;2.20;1.80;;;26.20;39.00;;;;;;10506983;28;20713;-78
2021/06/29 09:32:50;;;;;;;1.80;1.70;;;26.40;39.50;;;;;;10524585;28;20263;-78
2021/06/29 09:37:54;;;;;;;2.07;1.87;;;26.60;39.10;;;;;;10511423;28;20277;-78
2021/06/29 09:43:13;;;;;;;2.00;1.90;;;26.90;39.70;;;;;;10505429;28;20239;-79
2021/06/29 09:48:29;;;;;;;1.80;1.70;;;27.10;38.50;;;;;;10519234;28;20215;-78
2021/06/29 09:53:36;;;;;;;2.13;1.90;;;27.40;37.70;;;;;;10503442;28;20227;-79
2021/06/29 09:58:40;;;;;;;1.80;1.70;;;27.60;37.90;;;;;;10508819;28;20239;-79
2021/06/29 10:03:50;;;;;;;1.80;1.70;;;27.80;37.30;;;;;;10513118;28;20235;-76
2021/06/29 10:08:55;;;;;;;2.00;1.90;;;27.90;36.60;;;;;;10504358;28;20232;-79
2021/06/29 10:14:02;;;;;;;1.90;1.80;;;28.00;36.60;;;;;;10516572;28;20719;-76
2021/06/29 10:19:32;;;;;;;1.70;1.60;;;28.10;36.30;;;;;;10518557;28;20601;-77
2021/06/29 10:24:38;;;;;;;1.70;1.60;;;28.30;35.70;;;;;;10516316;28;20229;-76
2021/06/29 10:29:41;;;;;;;1.43;1.33;;;28.40;34.50;;;;;;10516253;28;20219;-77
2021/06/29 10:34:47;;;;;;;1.50;1.40;;;28.50;34.90;;;;;;10525204;28;20311;-76
2021/06/29 10:39:51;;;;;;;1.60;1.50;;;28.60;33.60;;;;;;10501151;28;20243;-75
2021/06/29 10:44:54;;;;;;;1.60;1.60;;;28.70;34.30;;;;;;10519263;28;20220;-76
2021/06/29 10:50:01;;;;;;;1.70;1.60;;;28.80;34.90;;;;;;10507677;28;20220;-77
2021/06/29 10:55:06;;;;;;;1.70;1.60;;;28.90;33.30;;;;;;10520591;28;20691;-77
2021/06/29 11:00:28;;;;;;;1.50;1.40;;;29.00;33.50;;;;;;10515189;28;20220;-76
2021/06/29 11:05:34;;;;;;;1.40;1.40;;;29.30;32.90;;;;;;10508668;28;20232;-78
2021/06/29 11:10:41;;;;;;;1.30;1.30;;;29.30;32.00;;;;;;10517795;28;20310;-78
2021/06/29 11:15:52;;;;;;;1.60;1.50;;;29.40;31.10;;;;;;10507317;28;20252;-78
2021/06/29 11:20:57;;;;;;;1.30;1.20;;;29.50;31.20;;;;;;10523328;28;20315;-79
2021/06/29 11:26:01;;;;;;;4.17;1.53;;;29.60;31.50;;;;;;10517033;28;20481;-77
2021/06/29 11:31:30;;;;;;;1.30;1.30;;;29.70;31.30;;;;;;10516617;28;20221;-77
2021/06/29 11:36:53;;;;;;;1.50;1.40;;;29.70;30.10;;;;;;10521307;28;20280;-77
2021/06/29 11:41:58;;;;;;;1.67;1.40;;;29.80;30.50;;;;;;10511246;28;20220;-77
2021/06/29 11:47:10;;;;;;;1.50;1.40;;;29.90;30.60;;;;;;10508531;28;20594;-77
2021/06/29 11:52:25;;;;;;;1.20;1.20;;;30.00;29.60;;;;;;10522252;28;20568;-76
2021/06/29 11:57:31;;;;;;;1.30;1.30;;;30.10;28.70;;;;;;10515849;28;20738;-77
2021/06/29 12:02:34;;;;;;;1.27;1.20;;;30.10;29.20;;;;;;10519016;28;20239;-77
2021/06/29 12:07:41;;;;;;;1.20;1.20;;;30.10;28.80;;;;;;10526640;28;20235;-76
2021/06/29 12:12:46;;;;;;;1.30;1.20;;;30.10;28.40;;;;;;10515254;28;20234;-78
2021/06/29 12:18:01;;;;;;;1.60;1.50;;;30.20;28.80;;;;;;10508799;28;20222;-77
2021/06/29 12:23:08;;;;;;;1.33;1.33;;;30.30;28.50;;;;;;10530245;28;20273;-77
2021/06/29 12:28:13;;;;;;;2.80;1.20;;;30.30;27.60;;;;;;10525104;28;20228;-78
2021/06/29 12:33:22;;;;;;;1.40;1.30;;;30.30;28.20;;;;;;10520675;28;20220;-76
2021/06/29 12:38:28;;;;;;;2.40;1.40;;;30.30;27.20;;;;;;10519398;28;20231;-77
2021/06/29 12:43:36;;;;;;;1.30;1.20;;;30.40;27.20;;;;;;10512766;28;20232;-76
2021/06/29 12:48:39;;;;;;;2.27;1.40;;;30.40;27.00;;;;;;10520213;28;20230;-77
2021/06/29 12:53:52;;;;;;;2.70;1.30;;;30.40;27.90;;;;;;10513782;28;20219;-78
2021/06/29 12:58:55;;;;;;;1.30;1.30;;;30.50;26.70;;;;;;10518977;28;20223;-77
2021/06/29 13:04:06;;;;;;;3.47;1.40;;;30.60;27.80;;;;;;10519745;28;20710;-77
2021/06/29 13:09:12;;;;;;;1.40;1.30;;;30.60;27.80;;;;;;10519000;28;20219;-78
2021/06/29 13:14:15;;;;;;;1.43;1.37;;;30.70;27.30;;;;;;10515082;28;20242;-81
2021/06/29 13:19:21;;;;;;;1.40;1.30;;;30.70;27.80;;;;;;10520643;28;20230;-77
2021/06/29 13:24:26;;;;;;;1.60;1.50;;;30.70;27.60;;;;;;10522091;28;20626;-79
2021/06/29 13:29:32;;;;;;;1.70;1.30;;;30.80;27.10;;;;;;10520652;28;20223;-78
2021/06/29 13:34:37;;;;;;;1.60;1.50;;;30.80;26.60;;;;;;10511283;28;20334;-78
2021/06/29 13:39:41;;;;;;;1.50;1.40;;;30.80;27.40;;;;;;10522057;28;20265;-77
2021/06/29 13:45:00;;;;;;;1.60;1.50;;;30.80;27.10;;;;;;10502729;28;20228;-82
2021/06/29 13:50:06;;;;;;;1.60;1.50;;;30.80;27.20;;;;;;10517062;28;20281;-80
2021/06/29 13:55:14;;;;;;;1.70;1.60;;;30.80;26.90;;;;;;10517367;28;20952;-77
2021/06/29 14:00:26;;;;;;;1.73;1.40;;;30.80;26.30;;;;;;10501293;28;20718;-78
2021/06/29 14:05:35;;;;;;;1.40;1.37;;;30.80;26.40;;;;;;10498968;28;20232;-78
2021/06/29 14:10:39;;;;;;;1.60;1.50;;;30.70;26.60;;;;;;10496551;28;20228;-77
2021/06/29 14:15:58;;;;;;;1.70;1.60;;;30.70;27.00;;;;;;10512002;28;20244;-78
2021/06/29 14:21:04;;;;;;;1.77;1.53;;;30.70;27.40;;;;;;10501467;28;20254;-77
2021/06/29 14:26:09;;;;;;;1.60;1.50;;;30.60;27.30;;;;;;10500339;28;20223;-79
2021/06/29 14:31:13;;;;;;;1.67;1.57;;;30.60;27.10;;;;;;10519205;28;20629;-78
2021/06/29 14:36:18;;;;;;;1.70;1.60;;;30.50;27.40;;;;;;10507156;28;20228;-78
2021/06/29 14:41:22;;;;;;;1.73;1.63;;;30.50;27.60;;;;;;10518159;28;20302;-78
2021/06/29 14:46:27;;;;;;;1.90;1.60;;;30.50;27.60;;;;;;10518685;28;20607;-79
2021/06/29 14:51:30;;;;;;;1.80;1.70;;;30.40;27.50;;;;;;10513025;28;20700;-79
2021/06/29 14:56:40;;;;;;;1.80;1.70;;;30.30;27.70;;;;;;10511955;28;20246;-80
2021/06/29 15:01:47;;;;;;;1.70;1.60;;;30.10;27.90;;;;;;10509085;28;20238;-77
2021/06/29 15:06:50;;;;;;;1.90;1.80;;;30.00;27.70;;;;;;10501718;28;20235;-78
2021/06/29 15:11:55;;;;;;;1.83;1.73;;;29.70;27.60;;;;;;10515603;28;20233;-77
2021/06/29 15:16:58;;;;;;;1.13;0.90;;;29.40;28.30;;;;;;10479412;22;20228;-73
2021/06/29 15:22:02;;;;;;;2.63;0.97;;;28.80;26.20;;;;;;10451329;28;20247;-73
2021/06/29 15:27:06;;;;;;;2.23;0.80;;;27.70;25.60;;;;;;10448815;28;20233;-73
2021/06/29 15:32:09;;;;;;;2.43;1.20;;;26.30;26.70;;;;;;10449781;28;20231;-74
2021/06/29 15:37:14;;;;;;;3.13;1.10;;;25.10;28.20;;;;;;10452469;28;20319;-74
2021/06/29 15:42:18;;;;;;;3.10;0.97;;;24.00;28.90;;;;;;10455566;28;20235;-74
2021/06/29 15:47:21;;;;;;;1.77;1.33;;;23.10;30.30;;;;;;10450793;28;20289;-74
2021/06/29 15:52:25;;;;;;;1.57;1.10;;;22.40;30.60;;;;;;10449413;28;20224;-73
2021/06/29 15:57:29;;;;;;;2.37;0.90;;;21.80;31.60;;;;;;10451953;28;20747;-76
2021/06/29 16:02:32;;;;;;;2.50;0.90;;;21.50;33.10;;;;;;10451331;28;20709;-77
2021/06/29 16:07:36;;;;;;;0.80;0.80;;;21.30;32.70;;;;;;10456570;28;20290;-76
2021/06/29 16:12:41;;;;;;;2.93;0.90;;;21.10;33.20;;;;;;10456627;28;20220;-76
2021/06/29 16:17:44;;;;;;;2.07;0.90;;;20.90;34.40;;;;;;10456398;28;20808;-76
2021/06/29 16:22:48;;;;;;;1.70;0.90;;;20.70;34.20;;;;;;10449289;28;20248;-76
2021/06/29 16:27:52;;;;;;;1.67;0.80;;;20.60;34.60;;;;;;10455680;28;20228;-76
2021/06/29 16:32:55;;;;;;;1.50;0.70;;;20.30;35.80;;;;;;10455248;28;20217;-77
2021/06/29 16:37:58;;;;;;;0.70;0.70;;;20.10;35.80;;;;;;10448718;28;20224;-74
2021/06/29 16:43:03;;;;;;;1.17;0.90;;;19.90;36.40;;;;;;10452287;28;20224;-74
2021/06/29 16:48:07;;;;;;;0.93;0.87;;;19.70;37.50;;;;;;10451531;28;20236;-74
2021/06/29 16:53:10;;;;;;;0.83;0.70;;;19.50;37.50;;;;;;10450968;28;20235;-72
2021/06/29 16:58:16;;;;;;;0.70;0.70;;;19.30;37.70;;;;;;10451114;28;20232;-71
2021/06/29 17:03:19;;;;;;;2.50;1.07;;;19.20;40.10;;;;;;10455555;28;20232;-71
2021/06/29 17:08:23;;;;;;;1.70;0.73;;;19.00;39.10;;;;;;10447628;28;20244;-71
2021/06/29 17:13:29;;;;;;;0.60;0.60;;;18.90;39.40;;;;;;10452152;28;20600;-72
2021/06/29 17:18:34;;;;;;;0.80;0.70;;;18.80;39.80;;;;;;10452041;28;20257;-71
2021/06/29 17:23:37;;;;;;;1.67;0.60;;;18.80;38.90;;;;;;10452356;28;20233;-71
2021/06/29 17:28:41;;;;;;;1.37;0.90;;;18.90;38.70;;;;;;10443305;28;20233;-71
2021/06/29 17:33:45;;;;;;;0.63;0.60;;;19.00;39.50;;;;;;10451891;28;20224;-71
2021/06/29 17:38:48;;;;;;;0.80;0.80;;;19.10;38.50;;;;;;10440465;28;20224;-72
2021/06/29 17:43:52;;;;;;;1.10;0.93;;;19.20;38.50;;;;;;10442376;28;20240;-72
2021/06/29 17:48:56;;;;;;;0.87;0.87;;;19.20;39.30;;;;;;10442398;28;20228;-71
2021/06/29 17:53:59;;;;;;;2.20;0.90;;;19.20;38.80;;;;;;10449803;28;20232;-72
2021/06/29 17:59:04;;;;;;;0.80;0.80;;;19.20;38.90;;;;;;10443113;28;20590;-71
2021/06/29 18:04:07;;;;;;;0.80;0.80;;;19.20;39.80;;;;;;10447696;28;20785;-71
2021/06/29 18:09:10;;;;;;;1.00;0.90;;;19.10;39.10;;;;;;10449342;28;20235;-72
2021/06/29 18:14:15;;;;;;;1.20;0.80;;;19.00;39.40;;;;;;10444664;28;20755;-71
2021/06/29 18:19:18;;;;;;;0.80;0.80;;;19.00;40.50;;;;;;10449075;28;20228;-72
2021/06/29 18:24:21;;;;;;;1.10;0.80;;;19.00;39.80;;;;;;10450901;28;20320;-72
2021/06/29 18:29:26;;;;;;;2.67;0.90;;;19.10;39.80;;;;;;10443146;28;20228;-72
2021/06/29 18:34:29;;;;;;;0.60;0.60;;;19.10;40.30;;;;;;10444294;28;20706;-71
2021/06/29 18:39:33;;;;;;;0.70;0.70;;;19.20;39.50;;;;;;10451499;28;20236;-71
2021/06/29 18:44:38;;;;;;;0.80;0.80;;;19.20;39.60;;;;;;10446827;28;20231;-71
2021/06/29 18:49:42;;;;;;;1.90;0.87;;;19.30;40.50;;;;;;10445710;28;20228;-71
2021/06/29 18:54:47;;;;;;;0.90;0.80;;;19.30;39.40;;;;;;10447352;28;20227;-71
2021/06/29 18:59:51;;;;;;;1.00;0.93;;;19.40;39.40;;;;;;10443317;28;20225;-71
2021/06/29 19:04:54;;;;;;;1.13;0.90;;;19.40;40.10;;;;;;10447413;28;20233;-71
2021/06/29 19:09:58;;;;;;;1.00;0.90;;;19.40;39.50;;;;;;10446166;28;20324;-71
2021/06/29 19:15:03;;;;;;;1.00;1.00;;;19.30;39.60;;;;;;10448590;28;20229;-71
2021/06/29 19:20:09;;;;;;;4.50;2.73;;;19.30;40.20;;;;;;10450480;28;20213;-72
2021/06/29 19:25:13;;;;;;;4.63;3.07;;;19.30;40.40;;;;;;10454730;28;20228;-71
2021/06/29 19:30:19;;;;;;;3.33;3.03;;;19.30;40.00;;;;;;10453983;28;20221;-72
2021/06/29 19:35:22;;;;;;;2.87;2.60;;;19.30;40.80;;;;;;10448328;28;20233;-72
2021/06/29 19:40:26;;;;;;;3.40;1.83;;;19.30;39.80;;;;;;10449051;28;20719;-74
2021/06/29 19:45:30;;;;;;;2.30;2.10;;;19.30;39.90;;;;;;10450902;28;20650;-74
2021/06/29 19:50:34;;;;;;;2.73;1.93;;;19.40;40.50;;;;;;10434921;28;20236;-74
2021/06/29 19:55:37;;;;;;;3.80;1.50;;;19.30;39.70;;;;;;10448313;28;20232;-74
2021/06/29 20:00:41;;;;;;;1.43;1.20;;;19.30;39.80;;;;;;10453573;28;20233;-74
2021/06/29 20:05:46;;;;;;;0.90;0.90;;;19.30;40.80;;;;;;10443996;28;20246;-74
2021/06/29 20:10:49;;;;;;;1.30;1.20;;;19.30;40.30;;;;;;10448617;28;20228;-74
2021/06/29 20:15:54;;;;;;;1.77;1.20;;;19.40;40.20;;;;;;10454348;28;20233;-74
2021/06/29 20:20:57;;;;;;;1.53;1.13;;;19.40;40.50;;;;;;10456058;28;20225;-74
2021/06/29 20:26:00;;;;;;;1.23;1.10;;;19.50;39.90;;;;;;10451922;28;20228;-74
2021/06/29 20:31:07;;;;;;;2.73;1.10;;;19.50;39.90;;;;;;10454314;28;20228;-74
2021/06/29 20:36:10;;;;;;;2.33;1.23;;;19.50;40.60;;;;;;10441870;28;20232;-74
2021/06/29 20:41:13;;;;;;;3.03;1.40;;;19.60;40.30;;;;;;10462788;28;20225;-74
2021/06/29 20:46:18;;;;;;;2.33;1.43;;;19.60;40.20;;;;;;10450792;28;21257;-74
2021/06/29 20:51:21;;;;;;;2.43;1.40;;;19.70;40.60;;;;;;10448173;28;24697;-74
2021/06/29 20:56:44;;;;;;;1.20;1.20;;;19.60;40.00;;;;;;10448475;28;20240;-74
2021/06/29 21:01:48;;;;;;;1.30;1.20;;;19.50;40.10;;;;;;10440709;28;20701;-74
2021/06/29 21:06:52;;;;;;;2.37;1.37;;;19.50;41.00;;;;;;10459712;28;20237;-74
2021/06/29 21:11:56;;;;;;;1.30;1.07;;;19.40;40.50;;;;;;10453693;28;20221;-74
2021/06/29 21:17:05;;;;;;;1.43;1.30;;;19.30;40.70;;;;;;10449036;28;20852;-73
2021/06/29 21:22:13;;;;;;;1.50;1.40;;;19.30;41.60;;;;;;10448227;28;20220;-73
2021/06/29 21:27:21;;;;;;;1.60;1.50;;;19.20;41.00;;;;;;10446712;28;20281;-74
2021/06/29 21:32:30;;;;;;;1.47;1.37;;;19.10;41.20;;;;;;10446043;28;20298;-74
2021/06/29 21:37:40;;;;;;;2.40;1.60;;;19.00;42.00;;;;;;10444226;28;20230;-74
2021/06/29 21:42:48;;;;;;;3.10;1.50;;;18.90;41.50;;;;;;10448123;28;20242;-74
2021/06/29 21:47:57;;;;;;;1.60;1.33;;;18.90;41.80;;;;;;10449440;28;20227;-74
2021/06/29 21:53:05;;;;;;;1.77;1.50;;;18.80;42.60;;;;;;10452385;28;20293;-74
2021/06/29 21:58:14;;;;;;;1.90;1.63;;;18.80;42.30;;;;;;10441113;28;20300;-74
2021/06/29 22:03:23;;;;;;;1.83;1.50;;;18.80;42.50;;;;;;10439926;28;20775;-74
2021/06/29 22:08:31;;;;;;;1.67;1.57;;;18.80;43.40;;;;;;10443366;28;20218;-74
2021/06/29 22:13:35;;;;;;;1.80;1.70;;;18.80;42.80;;;;;;10455758;28;20244;-74
2021/06/29 22:18:44;;;;;;;1.70;1.60;;;18.80;42.80;;;;;;10442778;28;20227;-73
2021/06/29 22:23:52;;;;;;;2.30;1.50;;;18.80;43.70;;;;;;10448458;28;20299;-74
2021/06/29 22:28:55;;;;;;;3.67;1.83;;;18.80;43.00;;;;;;10429403;28;20261;-74
2021/06/29 22:34:05;;;;;;;2.27;1.60;;;18.80;43.10;;;;;;10445530;28;20312;-73
2021/06/29 22:39:13;;;;;;;1.70;1.60;;;18.80;43.90;;;;;;10437548;28;20221;-74
2021/06/29 22:44:21;;;;;;;2.53;1.67;;;18.90;43.20;;;;;;10447668;28;20225;-74
2021/06/29 22:49:30;;;;;;;1.70;1.30;;;19.00;43.30;;;;;;10443428;28;20229;-74
2021/06/29 22:54:38;;;;;;;4.33;1.80;;;19.00;43.90;;;;;;10444591;28;20228;-73
2021/06/29 22:59:47;;;;;;;1.70;1.60;;;19.00;43.40;;;;;;10453104;28;20307;-74
2021/06/29 23:04:56;;;;;;;1.60;1.50;;;19.10;43.40;;;;;;10452043;28;20247;-74
2021/06/29 23:10:06;;;;;;;1.30;1.10;;;19.20;43.90;;;;;;10451851;28;20267;-74
2021/06/29 23:15:14;;;;;;;4.10;1.60;;;19.20;43.60;;;;;;10448180;28;20579;-74
2021/06/29 23:20:19;;;;;;;4.30;1.33;;;19.30;43.40;;;;;;10449695;28;20784;-77
2021/06/29 23:25:27;;;;;;;2.50;1.30;;;19.40;44.20;;;;;;10442525;28;20323;-76
2021/06/29 23:30:35;;;;;;;1.83;1.10;;;19.50;43.40;;;;;;10445056;28;20222;-77
2021/06/29 23:35:45;;;;;;;2.00;1.30;;;19.50;43.30;;;;;;10456768;28;20224;-76
2021/06/29 23:40:56;;;;;;;1.67;1.27;;;19.60;43.70;;;;;;10447644;28;20311;-77
2021/06/29 23:46:04;;;;;;;1.20;1.20;;;19.60;43.10;;;;;;10446695;28;20232;-76
2021/06/29 23:51:14;;;;;;;2.90;1.40;;;19.60;43.00;;;;;;10453809;28;20217;-76
2021/06/29 23:56:22;;;;;;;2.70;1.30;;;19.70;43.50;;;;;;10448501;28;20593;-76
